createdAt,value
2019-02-11T00:00:20.410Z,4.13
2019-02-11T00:05:22.822Z,4.15
2019-02-11T00:10:24.765Z,4.15
2019-02-11T00:15:26.353Z,4.09
2019-02-11T00:20:27.920Z,4.02
2019-02-11T00:25:29.847Z,4.04
2019-02-11T00:30:31.403Z,4.09
2019-02-11T00:35:33.001Z,4.13
2019-02-11T00:40:35.064Z,4.16
2019-02-11T00:45:36.626Z,4.11
2019-02-11T00:50:38.589Z,4.08
2019-02-11T00:55:40.488Z,4.04
2019-02-11T01:00:42.088Z,4.00
2019-02-11T01:05:43.981Z,3.85
2019-02-11T01:10:45.944Z,3.77
2019-02-11T01:15:47.492Z,3.69
2019-02-11T01:20:49.025Z,3.62
2019-02-11T01:25:50.620Z,3.57
2019-02-11T01:30:52.153Z,3.52
2019-02-11T01:35:53.694Z,3.49
2019-02-11T01:40:55.535Z,3.48
2019-02-11T01:45:57.057Z,3.50
2019-02-11T01:50:58.612Z,3.55
2019-02-11T01:56:00.131Z,3.54
2019-02-11T02:01:01.713Z,3.50
2019-02-11T02:06:03.267Z,3.50
2019-02-11T02:11:04.897Z,3.46
2019-02-11T02:16:06.483Z,3.45
2019-02-11T02:21:08.029Z,3.56
2019-02-11T02:26:09.613Z,3.65
2019-02-11T02:31:11.164Z,3.56
2019-02-11T02:36:12.707Z,3.60
2019-02-11T02:41:14.237Z,3.78
2019-02-11T02:46:16.222Z,3.87
2019-02-11T02:51:17.783Z,3.89
2019-02-11T02:56:19.364Z,3.94
2019-02-11T03:01:21.231Z,3.93
2019-02-11T03:06:23.169Z,3.91
2019-02-11T03:11:25.050Z,3.83
2019-02-11T03:16:26.615Z,3.72
2019-02-11T03:21:28.555Z,3.69
2019-02-11T03:26:30.098Z,3.66
2019-02-11T03:31:31.702Z,3.59
2019-02-11T03:36:33.255Z,3.66
2019-02-11T03:41:34.790Z,3.73
2019-02-11T03:46:36.502Z,3.72
2019-02-11T03:51:38.130Z,3.81
2019-02-11T03:56:39.649Z,3.66
2019-02-11T04:01:41.585Z,3.54
2019-02-11T04:06:43.425Z,3.48
2019-02-11T04:11:44.944Z,3.51
2019-02-11T04:16:46.576Z,3.54
2019-02-11T04:22:05.433Z,3.46
2019-02-11T04:27:06.990Z,3.46
2019-02-11T04:32:08.496Z,3.66
2019-02-11T04:37:10.042Z,3.79
2019-02-11T04:42:11.590Z,3.82
2019-02-11T04:47:13.200Z,3.79
2019-02-11T04:52:15.100Z,3.64
2019-02-11T04:57:16.704Z,3.56
2019-02-11T05:02:18.305Z,3.50
2019-02-11T05:07:19.860Z,3.46
2019-02-11T05:12:21.444Z,3.36
2019-02-11T05:17:23.228Z,3.29
2019-02-11T05:22:24.838Z,3.31
2019-02-11T05:27:26.821Z,3.24
2019-02-11T05:32:28.349Z,3.22
2019-02-11T05:37:29.981Z,3.25
2019-02-11T05:42:32.292Z,3.43
2019-02-11T05:47:33.854Z,3.48
2019-02-11T05:52:35.511Z,3.35
2019-02-11T05:57:37.056Z,3.33
2019-02-11T06:02:38.660Z,3.26
2019-02-11T06:07:40.205Z,3.23
2019-02-11T06:12:41.733Z,3.23
2019-02-11T06:17:43.774Z,3.23
2019-02-11T06:22:45.454Z,3.16
2019-02-11T06:27:47.373Z,3.19
2019-02-11T06:32:49.260Z,3.17
2019-02-11T06:37:50.819Z,3.12
2019-02-11T06:42:52.378Z,3.14
2019-02-11T06:47:53.899Z,3.10
2019-02-11T06:52:56.111Z,3.07
2019-02-11T06:57:57.652Z,3.00
2019-02-11T07:02:59.286Z,3.04
2019-02-11T07:08:00.885Z,3.14
2019-02-11T07:13:02.517Z,3.19
2019-02-11T07:18:04.080Z,3.18
2019-02-11T07:23:05.631Z,3.24
2019-02-11T07:28:07.247Z,3.33
2019-02-11T07:33:08.769Z,3.28
2019-02-11T07:38:10.705Z,3.37
2019-02-11T07:43:12.247Z,3.52
2019-02-11T07:48:13.833Z,3.48
2019-02-11T07:53:15.434Z,3.50
2019-02-11T07:58:17.339Z,3.50
2019-02-11T08:03:18.892Z,3.46
2019-02-11T08:08:20.447Z,3.63
2019-02-11T08:13:22.060Z,3.84
2019-02-11T08:18:24.003Z,4.06
2019-02-11T08:23:25.558Z,3.94
2019-02-11T08:28:27.105Z,3.90
2019-02-11T08:33:30.472Z,4.03
2019-02-11T08:38:32.241Z,4.08
2019-02-11T08:43:33.872Z,4.09
2019-02-11T08:48:35.416Z,4.03
2019-02-11T08:53:37.005Z,4.07
2019-02-11T08:58:38.563Z,4.21
2019-02-11T09:03:40.121Z,4.31
2019-02-11T09:08:42.017Z,4.38
2019-02-11T09:13:43.561Z,4.56
2019-02-11T09:18:45.119Z,4.74
2019-02-11T09:23:46.690Z,4.90
2019-02-11T09:28:48.251Z,5.13
2019-02-11T09:33:50.198Z,5.42
2019-02-11T09:38:52.257Z,5.82
2019-02-11T09:43:53.869Z,6.39
2019-02-11T09:48:55.357Z,6.51
2019-02-11T09:53:57.111Z,6.54
2019-02-11T09:58:58.713Z,6.78
2019-02-11T10:04:00.619Z,7.14
2019-02-11T10:09:02.143Z,6.84
2019-02-11T10:14:03.687Z,6.59
2019-02-11T10:19:05.650Z,6.87
2019-02-11T10:24:07.309Z,7.00
2019-02-11T10:29:08.905Z,7.10
2019-02-11T10:34:10.467Z,7.06
2019-02-11T10:39:12.049Z,6.91
2019-02-11T10:44:13.705Z,6.72
2019-02-11T10:49:15.395Z,6.73
2019-02-11T10:54:17.650Z,6.58
2019-02-11T10:59:19.668Z,6.50
2019-02-11T11:04:21.269Z,6.48
2019-02-11T11:09:22.820Z,6.52
2019-02-11T11:14:24.537Z,6.73
2019-02-11T11:19:26.096Z,6.77
2019-02-11T11:24:27.686Z,6.70
2019-02-11T11:29:29.280Z,6.94
2019-02-11T11:34:31.908Z,7.33
2019-02-11T11:39:33.649Z,7.05
2019-02-11T11:44:35.286Z,6.87
2019-02-11T11:49:37.217Z,6.90
2019-02-11T11:54:38.806Z,7.32
2019-02-11T11:59:40.743Z,7.75
2019-02-11T12:04:42.314Z,7.44
2019-02-11T12:09:44.176Z,7.50
2019-02-11T12:14:45.778Z,7.85
2019-02-11T12:19:47.452Z,8.06
2019-02-11T12:24:49.087Z,8.47
2019-02-11T12:29:50.737Z,8.54
2019-02-11T12:34:52.383Z,8.28
2019-02-11T12:39:53.990Z,8.28
2019-02-11T12:44:55.580Z,8.58
2019-02-11T12:49:58.180Z,8.64
2019-02-11T12:54:59.720Z,8.57
2019-02-11T13:00:01.400Z,8.89
2019-02-11T13:05:03.497Z,8.69
2019-02-11T13:10:05.510Z,8.47
2019-02-11T13:15:09.078Z,8.86
2019-02-11T13:20:11.990Z,8.82
2019-02-11T13:25:14.185Z,8.59
2019-02-11T13:30:17.255Z,8.50
2019-02-11T13:35:18.866Z,8.13
2019-02-11T13:40:20.384Z,7.96
2019-02-11T13:45:22.225Z,7.93
2019-02-11T13:50:24.018Z,8.21
2019-02-11T13:55:30.070Z,8.56
2019-02-11T14:00:29.184Z,8.89
2019-02-11T14:05:30.764Z,8.91
2019-02-11T14:10:32.606Z,8.36
2019-02-11T14:15:34.530Z,8.28
2019-02-11T14:20:36.257Z,8.31
2019-02-11T14:25:43.619Z,8.39
2019-02-11T14:30:41.612Z,8.31
2019-02-11T14:35:43.640Z,8.21
2019-02-11T14:40:45.197Z,8.18
2019-02-11T14:45:46.716Z,8.01
2019-02-11T14:50:48.680Z,7.62
2019-02-11T14:55:50.245Z,7.42
2019-02-11T15:00:51.906Z,7.42
2019-02-11T15:05:53.431Z,7.68
2019-02-11T15:10:55.092Z,8.06
2019-02-11T15:15:56.670Z,8.49
2019-02-11T15:20:58.239Z,8.70
2019-02-11T15:26:00.442Z,8.35
2019-02-11T15:31:01.991Z,8.17
2019-02-11T15:36:03.962Z,8.05
2019-02-11T15:41:05.595Z,7.98
2019-02-11T15:46:07.484Z,7.91
2019-02-11T15:51:09.055Z,7.73
2019-02-11T15:56:11.252Z,7.59
2019-02-11T16:01:12.830Z,7.57
2019-02-11T16:06:14.376Z,7.53
2019-02-11T16:11:15.918Z,7.42
2019-02-11T16:16:17.914Z,7.30
2019-02-11T16:21:19.530Z,7.13
2019-02-11T16:26:21.127Z,6.92
2019-02-11T16:31:22.677Z,6.70
2019-02-11T16:36:24.233Z,6.54
2019-02-11T16:41:25.775Z,6.37
2019-02-11T16:46:27.750Z,6.21
2019-02-11T16:51:29.810Z,6.03
2019-02-11T16:56:32.019Z,5.88
2019-02-11T17:01:33.538Z,5.72
2019-02-11T17:06:36.352Z,5.68
2019-02-11T17:11:37.843Z,5.60
2019-02-11T17:16:39.420Z,5.55
2019-02-11T17:21:40.922Z,5.40
2019-02-11T17:26:42.816Z,5.23
2019-02-11T17:31:44.365Z,5.13
2019-02-11T17:36:45.998Z,5.01
2019-02-11T17:41:47.570Z,4.93
2019-02-11T17:46:49.083Z,4.81
2019-02-11T17:51:50.695Z,4.71
2019-02-11T17:56:52.306Z,4.61
2019-02-11T18:01:53.849Z,4.53
2019-02-11T18:06:55.390Z,4.47
2019-02-11T18:11:59.143Z,4.35
2019-02-11T18:17:00.712Z,4.26
2019-02-11T18:22:02.582Z,4.16
2019-02-11T18:27:04.143Z,4.08
2019-02-11T18:32:05.753Z,4.02
2019-02-11T18:37:07.400Z,3.99
2019-02-11T18:42:09.018Z,3.95
2019-02-11T18:47:10.712Z,3.90
2019-02-11T18:52:12.294Z,3.83
2019-02-11T18:57:15.342Z,3.79
2019-02-11T19:02:17.372Z,3.74
2019-02-11T19:07:18.932Z,3.69
2019-02-11T19:12:20.919Z,3.65
2019-02-11T19:17:22.726Z,3.63
2019-02-11T19:22:24.272Z,3.63
2019-02-11T19:27:25.827Z,3.58
2019-02-11T19:32:27.518Z,3.57
2019-02-11T19:37:29.117Z,3.56
2019-02-11T19:42:30.717Z,3.55
2019-02-11T19:47:32.270Z,3.55
2019-02-11T19:52:33.864Z,3.54
2019-02-11T19:57:35.496Z,3.54
2019-02-11T20:02:37.240Z,3.49
2019-02-11T20:07:38.835Z,3.50
2019-02-11T20:12:40.447Z,3.46
2019-02-11T20:17:41.997Z,3.44
2019-02-11T20:22:43.625Z,3.42
2019-02-11T20:27:45.266Z,3.33
2019-02-11T20:32:46.988Z,3.28
2019-02-11T20:37:49.832Z,3.21
2019-02-11T20:42:51.485Z,3.18
2019-02-11T20:47:53.162Z,3.17
2019-02-11T20:52:54.882Z,3.14
2019-02-11T20:57:56.962Z,3.12
2019-02-11T21:03:07.908Z,3.10
2019-02-11T21:08:03.845Z,3.06
2019-02-11T21:13:05.539Z,3.04
2019-02-11T21:18:07.603Z,3.02
2019-02-11T21:23:09.430Z,2.96
2019-02-11T21:28:11.427Z,2.93
2019-02-11T21:33:13.363Z,2.89
2019-02-11T21:38:15.356Z,2.92
2019-02-11T21:43:17.058Z,2.90
2019-02-11T21:48:18.664Z,2.90
2019-02-11T21:53:20.263Z,2.88
2019-02-11T21:58:21.785Z,2.87
2019-02-11T22:03:23.378Z,2.80
2019-02-11T22:08:25.347Z,2.74
2019-02-11T22:13:27.714Z,2.72
2019-02-11T22:18:29.357Z,2.70
2019-02-11T22:23:30.958Z,2.68
2019-02-11T22:28:32.915Z,2.67
2019-02-11T22:33:34.496Z,2.65
2019-02-11T22:38:36.052Z,2.61
2019-02-11T22:43:38.134Z,2.57
2019-02-11T22:48:40.067Z,2.54
2019-02-11T22:53:41.994Z,2.44
2019-02-11T22:58:44.122Z,2.33
2019-02-11T23:03:45.610Z,2.24
2019-02-11T23:08:47.175Z,2.22
2019-02-11T23:13:48.890Z,2.18
2019-02-11T23:18:50.527Z,2.13
2019-02-11T23:23:52.465Z,2.06
2019-02-11T23:28:54.538Z,1.97
2019-02-11T23:33:56.492Z,1.92
2019-02-11T23:38:58.045Z,1.91
2019-02-11T23:43:59.586Z,1.90
2019-02-11T23:49:01.163Z,1.86
2019-02-11T23:54:02.726Z,1.84
2019-02-11T23:59:04.379Z,1.80
